createdAt,value
2023-04-01T00:06:05.759Z,8.78
2023-04-01T00:21:05.552Z,8.72
2023-04-01T00:36:05.420Z,8.71
2023-04-01T00:51:05.267Z,8.66
2023-04-01T01:06:05.083Z,8.73
2023-04-01T01:21:04.929Z,8.76
2023-04-01T01:36:04.817Z,8.79
2023-04-01T01:51:04.618Z,8.78
2023-04-01T02:06:04.509Z,8.81
2023-04-01T02:21:04.276Z,8.83
2023-04-01T02:36:04.240Z,8.83
2023-04-01T02:51:03.992Z,8.90
2023-04-01T03:06:03.807Z,8.86
2023-04-01T03:21:03.661Z,8.78
2023-04-01T03:36:03.533Z,8.78
2023-04-01T03:51:03.334Z,8.76
2023-04-01T04:06:03.155Z,8.73
2023-04-01T04:21:03.008Z,8.75
2023-04-01T04:36:02.883Z,8.76
2023-04-01T04:51:02.700Z,8.81
2023-04-01T05:06:02.574Z,8.87
2023-04-01T05:21:02.486Z,8.90
2023-04-01T05:36:02.243Z,8.99
2023-04-01T05:51:02.113Z,9.06
2023-04-01T06:06:01.866Z,9.13
2023-04-01T06:21:01.714Z,9.20
2023-04-01T06:36:01.972Z,9.28
2023-04-01T06:51:01.464Z,9.32
2023-04-01T07:06:01.707Z,9.45
2023-04-01T07:21:01.228Z,9.53
2023-04-01T07:36:01.051Z,9.63
2023-04-01T07:51:00.890Z,9.83
2023-04-01T08:06:00.644Z,9.89
2023-04-01T08:21:00.527Z,9.46
2023-04-01T08:36:00.397Z,9.45
2023-04-01T08:51:00.125Z,9.27
2023-04-01T09:05:59.926Z,9.40
2023-04-01T09:20:59.856Z,9.39
2023-04-01T09:35:59.659Z,9.28
2023-04-01T09:50:59.502Z,9.48
2023-04-01T10:05:59.310Z,9.12
2023-04-01T10:20:59.133Z,9.05
2023-04-01T10:35:58.991Z,9.06
2023-04-01T10:50:58.808Z,9.05
2023-04-01T11:05:58.793Z,8.93
2023-04-01T11:20:58.531Z,9.01
2023-04-01T11:35:58.329Z,8.68
2023-04-01T11:50:58.233Z,8.65
2023-04-01T12:05:57.997Z,8.53
2023-04-01T12:20:57.837Z,8.37
2023-04-01T12:35:57.904Z,8.54
2023-04-01T12:50:57.816Z,8.39
2023-04-01T13:05:57.560Z,8.25
2023-04-01T13:20:57.168Z,8.00
2023-04-01T13:35:57.147Z,7.93
2023-04-01T13:50:56.846Z,7.60
2023-04-01T14:05:56.687Z,7.42
2023-04-01T14:20:56.519Z,7.55
2023-04-01T14:35:56.391Z,7.42
2023-04-01T14:50:56.203Z,7.23
2023-04-01T15:05:56.086Z,7.04
2023-04-01T15:20:55.901Z,6.91
2023-04-01T15:35:55.760Z,6.86
2023-04-01T15:50:55.595Z,6.90
2023-04-01T16:05:55.435Z,6.54
2023-04-01T16:20:55.267Z,6.43
2023-04-01T16:35:55.204Z,6.29
2023-04-01T16:50:56.021Z,6.21
2023-04-01T17:05:55.561Z,5.95
2023-04-01T17:20:54.660Z,5.74
2023-04-01T17:35:54.588Z,5.55
2023-04-01T17:50:54.355Z,5.32
2023-04-01T18:05:54.209Z,5.13
2023-04-01T18:20:54.142Z,4.96
2023-04-01T18:35:53.852Z,4.86
2023-04-01T18:50:53.679Z,4.75
2023-04-01T19:05:53.539Z,4.70
2023-04-01T19:20:53.414Z,4.59
2023-04-01T19:35:53.287Z,4.51
2023-04-01T19:50:53.043Z,4.33
2023-04-01T20:05:52.888Z,4.25
2023-04-01T20:20:52.834Z,4.15
2023-04-01T20:35:52.570Z,3.92
2023-04-01T20:50:52.515Z,3.86
2023-04-01T21:05:52.238Z,3.70
2023-04-01T21:20:52.095Z,3.49
2023-04-01T21:35:52.037Z,3.39
2023-04-01T21:50:51.752Z,3.31
2023-04-01T22:05:51.564Z,3.25
2023-04-01T22:20:51.426Z,3.21
2023-04-01T22:35:51.307Z,3.20
2023-04-01T22:50:51.103Z,3.12
2023-04-01T23:05:50.934Z,3.07
2023-04-01T23:20:50.781Z,3.10
2023-04-01T23:35:50.679Z,3.05
2023-04-01T23:50:50.455Z,3.03
